Time;durP1;ratioP1;P1;durP2;ratioP2;P2;SDS_P1;SDS_P2;PMS_P1;PMS_P2;Temp;Humidity;BMP_temperature;BMP_pressure;BME280_temperature;BME280_humidity;BME280_pressure;Samples;Min_cycle;Max_cycle;Signal;HPM_P1;HPM_P2
2023/11/23 00:00:31;;;;;;;29.02;16.15;;;9.30;99.90;;;;;;20694912;28;20038;-47
2023/11/23 00:10:31;;;;;;;25.17;14.27;;;9.30;99.90;;;;;;20662779;28;20073;-48
2023/11/23 00:20:32;;;;;;;29.77;15.60;;;9.40;99.90;;;;;;20687140;28;21020;-48
2023/11/23 00:30:32;;;;;;;30.73;14.82;;;9.50;99.90;;;;;;20680581;28;20125;-48
2023/11/23 00:40:33;;;;;;;21.75;12.40;;;9.60;99.90;;;;;;20683286;28;20439;-48
2023/11/23 00:50:33;;;;;;;25.02;13.18;;;9.60;99.90;;;;;;20703269;28;20040;-48
2023/11/23 01:00:34;;;;;;;21.45;11.65;;;9.70;99.90;;;;;;20731893;28;20543;-47
2023/11/23 01:10:34;;;;;;;21.42;11.18;;;9.80;99.90;;;;;;20754670;28;20391;-47
2023/11/23 01:20:35;;;;;;;18.70;11.82;;;10.00;99.90;;;;;;20761960;28;20056;-48
2023/11/23 01:30:35;;;;;;;16.83;10.25;;;10.00;99.90;;;;;;20766631;28;20129;-48
2023/11/23 01:40:36;;;;;;;17.50;8.00;;;9.90;99.90;;;;;;20773720;28;20664;-48
2023/11/23 01:50:39;;;;;;;17.27;6.63;;;10.10;99.90;;;;;;20757951;28;20033;-48
2023/11/23 02:00:40;;;;;;;12.13;4.95;;;10.10;99.90;;;;;;20705612;28;20379;-48
2023/11/23 02:10:40;;;;;;;13.68;4.20;;;10.20;99.90;;;;;;20742802;28;20056;-48
2023/11/23 02:20:46;;;;;;;11.63;3.92;;;10.40;99.90;;;;;;20756222;28;20041;-48
2023/11/23 02:30:47;;;;;;;10.60;3.80;;;10.40;99.90;;;;;;20766040;28;20030;-48
2023/11/23 02:40:47;;;;;;;10.95;3.47;;;10.60;99.90;;;;;;20694849;28;20052;-48
2023/11/23 02:50:48;;;;;;;12.68;3.13;;;10.70;99.90;;;;;;20679279;28;20037;-48
2023/11/23 03:00:51;;;;;;;12.52;2.88;;;10.60;99.90;;;;;;20742059;28;20444;-48
2023/11/23 03:10:53;;;;;;;10.30;2.72;;;10.60;99.90;;;;;;20685117;28;20470;-48
2023/11/23 03:20:54;;;;;;;10.18;2.97;;;10.60;99.90;;;;;;20678839;28;20048;-48
2023/11/23 03:30:54;;;;;;;7.35;2.55;;;10.60;99.90;;;;;;20681283;28;20037;-48
2023/11/23 03:40:57;;;;;;;11.80;2.88;;;10.60;99.90;;;;;;20676503;28;20046;-48
2023/11/23 03:50:58;;;;;;;12.23;4.65;;;10.60;99.90;;;;;;20681360;28;20658;-48
2023/11/23 04:01:00;;;;;;;11.63;3.30;;;10.60;99.90;;;;;;20698878;28;20053;-48
2023/11/23 04:11:00;;;;;;;8.75;3.03;;;10.50;99.90;;;;;;20738484;28;20646;-48
2023/11/23 04:21:01;;;;;;;11.10;3.15;;;10.40;99.90;;;;;;20753934;28;20068;-48
2023/11/23 04:31:03;;;;;;;8.73;2.75;;;10.40;99.90;;;;;;20749057;28;20065;-48
2023/11/23 04:41:05;;;;;;;7.65;2.60;;;10.40;99.90;;;;;;20730087;28;20503;-48
2023/11/23 04:51:06;;;;;;;11.73;2.60;;;10.30;99.90;;;;;;20679769;28;20041;-47
2023/11/23 05:01:07;;;;;;;9.38;2.58;;;10.20;99.90;;;;;;20685772;28;20046;-48
2023/11/23 05:11:08;;;;;;;10.05;2.45;;;10.10;99.90;;;;;;20675156;28;20062;-48
2023/11/23 05:21:08;;;;;;;8.07;2.30;;;10.20;99.90;;;;;;20679248;28;20131;-48
2023/11/23 05:31:09;;;;;;;8.70;2.57;;;10.30;99.90;;;;;;20677125;28;20054;-48
2023/11/23 05:41:10;;;;;;;9.02;2.80;;;10.40;99.90;;;;;;20695139;28;21059;-48
2023/11/23 05:51:11;;;;;;;8.48;2.80;;;10.40;99.90;;;;;;20753611;28;20111;-48
2023/11/23 06:01:11;;;;;;;8.55;2.63;;;10.30;99.90;;;;;;20751183;28;20037;-48
2023/11/23 06:11:12;;;;;;;8.40;2.70;;;10.40;99.90;;;;;;20726454;28;20076;-48
2023/11/23 06:21:12;;;;;;;12.55;3.22;;;10.60;99.90;;;;;;20765333;28;20128;-48
2023/11/23 06:31:13;;;;;;;9.50;2.87;;;10.60;99.90;;;;;;20715614;28;20045;-48
2023/11/23 06:41:20;;;;;;;7.78;2.95;;;10.50;99.90;;;;;;20689837;28;20814;-48
2023/11/23 06:51:21;;;;;;;;;;;10.50;99.90;;;;;;20684874;28;20141;-48
2023/11/23 07:01:22;;;;;;;7.10;2.45;;;10.60;99.90;;;;;;20764472;28;19917;-48
2023/11/23 07:11:23;;;;;;;10.57;2.90;;;10.50;99.90;;;;;;20702172;28;20042;-48
2023/11/23 07:21:23;;;;;;;8.57;2.50;;;10.60;99.90;;;;;;20684020;28;21612;-48
2023/11/23 07:31:24;;;;;;;12.98;3.33;;;10.60;99.90;;;;;;20679062;28;20453;-47
2023/11/23 07:41:25;;;;;;;13.25;3.50;;;10.60;99.90;;;;;;20686828;28;20064;-48
2023/11/23 07:51:26;;;;;;;13.55;4.03;;;10.60;99.90;;;;;;20685737;28;20065;-48
2023/11/23 08:01:27;;;;;;;7.55;2.72;;;10.80;99.90;;;;;;20745773;28;20041;-48
2023/11/23 08:11:28;;;;;;;8.77;2.75;;;10.80;99.90;;;;;;20759578;28;20050;-48
2023/11/23 08:21:29;;;;;;;12.48;2.53;;;11.00;99.90;;;;;;20765053;28;20061;-48
2023/11/23 08:31:30;;;;;;;11.27;2.15;;;11.00;99.90;;;;;;20688928;28;20045;-48
2023/11/23 08:41:32;;;;;;;14.63;2.30;;;11.20;99.90;;;;;;20721306;28;20057;-48
2023/11/23 08:51:32;;;;;;;6.70;2.08;;;11.30;99.90;;;;;;20682676;28;20061;-48
2023/11/23 09:01:33;;;;;;;8.30;2.33;;;11.50;99.90;;;;;;20680160;28;20056;-48
2023/11/23 09:11:33;;;;;;;12.15;1.80;;;11.80;99.90;;;;;;20689256;28;20553;-48
2023/11/23 09:21:34;;;;;;;6.88;2.60;;;12.10;99.90;;;;;;20690143;28;20046;-48
2023/11/23 09:31:35;;;;;;;6.93;2.00;;;12.40;99.90;;;;;;20695085;28;20128;-48
2023/11/23 09:41:39;;;;;;;10.60;3.27;;;12.90;99.90;;;;;;20760127;28;20386;-48
2023/11/23 09:51:44;;;;;;;12.40;1.90;;;13.10;84.80;;;;;;20774093;28;20463;-48
2023/11/23 10:01:47;;;;;;;5.82;1.60;;;13.10;51.70;;;;;;20782884;28;20103;-48
2023/11/23 10:11:48;;;;;;;7.63;1.70;;;13.00;49.40;;;;;;20774021;28;20052;-48
2023/11/23 10:21:49;;;;;;;9.52;2.22;;;13.10;49.90;;;;;;20776147;28;20037;-47
2023/11/23 10:31:50;;;;;;;7.30;1.55;;;13.20;51.80;;;;;;20773990;28;20036;-48
2023/11/23 10:41:53;;;;;;;9.93;1.67;;;13.60;35.60;;;;;;20770329;28;20087;-48
2023/11/23 10:51:54;;;;;;;6.88;1.60;;;13.80;25.90;;;;;;20772456;28;20044;-48
2023/11/23 11:01:57;;;;;;;10.30;1.80;;;13.70;24.90;;;;;;20782751;28;20418;-48
2023/11/23 11:12:01;;;;;;;8.82;1.70;;;13.70;30.90;;;;;;20775326;28;20038;-48
2023/11/23 11:22:01;;;;;;;5.35;1.67;;;13.90;19.00;;;;;;20785996;28;20068;-48
2023/11/23 11:32:10;;;;;;;8.10;1.55;;;13.90;18.10;;;;;;20784868;28;20091;-48
2023/11/23 11:42:13;;;;;;;13.35;2.00;;;13.70;20.90;;;;;;20775809;28;20052;-48
2023/11/23 11:52:15;;;;;;;7.07;1.83;;;13.70;19.50;;;;;;20769136;28;20653;-48
2023/11/23 12:02:16;;;;;;;7.30;1.27;;;13.70;20.50;;;;;;20774244;28;20069;-48
2023/11/23 12:12:19;;;;;;;8.40;1.75;;;13.70;19.40;;;;;;20767975;28;20034;-48
2023/11/23 12:22:25;;;;;;;9.95;1.80;;;13.80;21.50;;;;;;20726693;28;20139;-48
2023/11/23 12:32:27;;;;;;;8.77;2.63;;;13.90;20.60;;;;;;20686156;28;20105;-49
2023/11/23 12:42:27;;;;;;;9.90;1.92;;;14.20;10.30;;;;;;20685034;28;20514;-48
2023/11/23 12:52:32;;;;;;;9.43;2.37;;;14.50;2.80;;;;;;20686701;28;20671;-48
2023/11/23 13:02:34;;;;;;;7.63;2.00;;;14.30;3.50;;;;;;20697412;28;20492;-48
2023/11/23 13:12:34;;;;;;;11.95;2.85;;;14.00;2.30;;;;;;20717238;28;20060;-49
2023/11/23 13:22:40;;;;;;;12.50;2.70;;;13.70;7.00;;;;;;20714421;28;20045;-49
2023/11/23 13:32:44;;;;;;;11.57;2.33;;;13.60;12.90;;;;;;20713310;28;20041;-49
2023/11/23 13:42:45;;;;;;;9.57;2.20;;;13.50;19.00;;;;;;20724287;28;20070;-48
2023/11/23 13:52:45;;;;;;;12.00;2.30;;;13.40;17.90;;;;;;20706093;28;20041;-48
2023/11/23 14:02:49;;;;;;;7.43;2.45;;;13.30;19.60;;;;;;20713734;28;20049;-49
2023/11/23 14:12:51;;;;;;;9.13;1.80;;;13.30;23.60;;;;;;20704504;28;20080;-48
2023/11/23 14:22:51;;;;;;;10.93;2.90;;;13.40;16.70;;;;;;20694622;28;20046;-48
2023/11/23 14:32:52;;;;;;;7.78;1.60;;;13.40;11.90;;;;;;20690921;28;20049;-49
2023/11/23 14:42:53;;;;;;;8.80;2.05;;;13.40;7.30;;;;;;20731458;28;20072;-49
2023/11/23 14:52:53;;;;;;;9.07;1.92;;;13.40;3.10;;;;;;20769808;28;20453;-49
2023/11/23 15:02:54;;;;;;;7.32;1.83;;;13.40;3.80;;;;;;20775123;28;20041;-49
2023/11/23 15:12:54;;;;;;;13.03;2.47;;;13.20;7.00;;;;;;20778181;28;20124;-49
2023/11/23 15:22:56;;;;;;;10.57;2.90;;;13.20;10.50;;;;;;20777873;28;20476;-48
2023/11/23 15:32:57;;;;;;;12.55;2.95;;;13.00;15.60;;;;;;20693085;28;20042;-48
2023/11/23 15:42:58;;;;;;;13.05;2.40;;;13.00;16.80;;;;;;20674116;28;20411;-48
2023/11/23 15:52:59;;;;;;;9.63;2.50;;;13.00;21.80;;;;;;20687909;28;20481;-48
2023/11/23 16:02:59;;;;;;;9.48;3.28;;;13.00;22.90;;;;;;20702989;28;20046;-48
2023/11/23 16:13:00;;;;;;;9.77;2.08;;;13.00;22.90;;;;;;20652117;28;20484;-49
2023/11/23 16:23:01;;;;;;;12.77;2.10;;;13.00;22.10;;;;;;20673839;28;20372;-49
2023/11/23 16:33:02;;;;;;;10.52;2.28;;;12.90;25.80;;;;;;20673845;28;20045;-49
2023/11/23 16:43:02;;;;;;;12.13;2.58;;;13.10;22.60;;;;;;20660356;28;21624;-48
2023/11/23 16:53:03;;;;;;;9.67;2.20;;;13.00;23.30;;;;;;20670803;28;20088;-48
2023/11/23 17:03:04;;;;;;;11.77;2.47;;;13.10;22.50;;;;;;20675505;28;20469;-48
2023/11/23 17:13:08;;;;;;;13.38;2.45;;;13.10;25.50;;;;;;20670657;28;20046;-49
2023/11/23 17:23:09;;;;;;;15.77;2.40;;;13.10;25.60;;;;;;20665927;28;20410;-48
2023/11/23 17:33:14;;;;;;;14.35;2.75;;;13.00;32.40;;;;;;20665338;28;20041;-48
2023/11/23 17:43:14;;;;;;;16.40;3.08;;;13.00;38.00;;;;;;20656892;28;20302;-48
2023/11/23 17:53:15;;;;;;;10.50;2.75;;;13.10;38.00;;;;;;20685002;28;20037;-48
2023/11/23 18:03:16;;;;;;;12.70;2.78;;;13.10;41.80;;;;;;20755578;28;20528;-49
2023/11/23 18:13:17;;;;;;;13.77;2.38;;;13.10;41.30;;;;;;20760971;28;20367;-49
2023/11/23 18:23:18;;;;;;;10.32;2.03;;;13.30;33.80;;;;;;20733651;28;20482;-48
2023/11/23 18:33:21;;;;;;;11.95;2.33;;;13.30;43.50;;;;;;20771871;28;20156;-48
2023/11/23 18:43:21;;;;;;;14.48;2.20;;;13.20;50.80;;;;;;20720161;28;20044;-48
2023/11/23 18:53:22;;;;;;;9.30;2.07;;;13.10;55.90;;;;;;20676741;28;20037;-48
2023/11/23 19:03:22;;;;;;;13.57;2.60;;;13.10;58.70;;;;;;20677714;28;20472;-48
2023/11/23 19:13:27;;;;;;;10.05;1.73;;;13.10;61.60;;;;;;20686876;28;20526;-48
2023/11/23 19:23:28;;;;;;;14.68;2.45;;;13.20;45.90;;;;;;20681810;28;20729;-48
2023/11/23 19:33:30;;;;;;;16.80;2.72;;;13.20;52.00;;;;;;20680650;28;20030;-48
2023/11/23 19:43:30;;;;;;;15.85;3.03;;;13.20;67.70;;;;;;20673147;28;20050;-48
2023/11/23 19:53:40;;;;;;;8.15;1.88;;;13.10;74.50;;;;;;20687377;28;20100;-48
2023/11/23 20:03:41;;;;;;;12.73;2.60;;;13.10;64.30;;;;;;20679572;28;20091;-48
2023/11/23 20:13:41;;;;;;;11.00;1.67;;;13.10;42.90;;;;;;20664380;28;20498;-48
2023/11/23 20:23:42;;;;;;;10.93;1.65;;;12.90;17.00;;;;;;20670797;28;20056;-48
2023/11/23 20:33:42;;;;;;;8.38;1.60;;;12.40;8.40;;;;;;20671328;28;20053;-48
2023/11/23 20:43:43;;;;;;;10.48;1.98;;;12.30;9.10;;;;;;20720391;28;20694;-48
2023/11/23 20:53:43;;;;;;;12.90;2.33;;;12.20;17.20;;;;;;20663342;28;20478;-49
2023/11/23 21:03:44;;;;;;;14.30;2.07;;;12.00;20.70;;;;;;20673427;28;20077;-48
2023/11/23 21:13:45;;;;;;;15.88;2.38;;;11.90;17.20;;;;;;20672637;28;20038;-48
2023/11/23 21:23:45;;;;;;;14.32;2.55;;;11.90;1.00;;;;;;20672072;28;20510;-48
2023/11/23 21:33:46;;;;;;;15.02;3.30;;;11.90;1.00;;;;;;20731700;28;20052;-49
2023/11/23 21:43:47;;;;;;;16.90;3.25;;;11.90;1.00;;;;;;20765306;28;20498;-49
2023/11/23 21:53:47;;;;;;;21.08;3.28;;;11.80;1.00;;;;;;20782572;28;20042;-48
2023/11/23 22:03:48;;;;;;;21.75;3.20;;;11.70;1.00;;;;;;20780717;28;20045;-49
2023/11/23 22:13:48;;;;;;;17.38;3.10;;;11.50;1.00;;;;;;20781260;28;20038;-48
2023/11/23 22:23:49;;;;;;;16.02;3.17;;;11.40;1.00;;;;;;20782263;28;20132;-48
2023/11/23 22:33:50;;;;;;;14.85;2.95;;;11.30;1.00;;;;;;20781996;28;20029;-48
2023/11/23 22:43:51;;;;;;;15.70;3.47;;;11.20;1.00;;;;;;20775170;28;20120;-48
2023/11/23 22:53:52;;;;;;;15.07;2.80;;;11.00;1.00;;;;;;20772512;28;20411;-49
2023/11/23 23:03:52;;;;;;;14.07;3.28;;;10.90;1.00;;;;;;20732140;28;20507;-48
2023/11/23 23:13:53;;;;;;;16.42;2.80;;;10.70;1.00;;;;;;20700653;28;20046;-48
2023/11/23 23:23:53;;;;;;;17.85;3.55;;;10.70;1.00;;;;;;20703453;28;20053;-48
2023/11/23 23:33:54;;;;;;;8.30;1.23;;;10.70;1.00;;;;;;20704454;28;20565;-48
2023/11/23 23:43:54;;;;;;;8.98;1.10;;;10.30;1.00;;;;;;20696894;28;20307;-49
2023/11/23 23:53:55;;;;;;;9.85;1.33;;;10.00;1.00;;;;;;20691167;28;20550;-49
